Time;durP1;ratioP1;P1;durP2;ratioP2;P2;SDS_P1;SDS_P2;PMS_P1;PMS_P2;Temp;Humidity;BMP_temperature;BMP_pressure;BME280_temperature;BME280_humidity;BME280_pressure;Samples;Min_cycle;Max_cycle;Signal;HPM_P1;HPM_P2
2022/08/23 00:01:54;;;;;;;;;2.00;2.00;;;;;23.02;49.49;98892.84;5074192;28;45506;-72
2022/08/23 00:04:24;;;;;;;;;0.80;0.80;;;;;23.00;49.61;98885.91;5074814;28;45467;-72
2022/08/23 00:06:51;;;;;;;;;2.00;2.00;;;;;22.97;49.63;98895.94;5074753;28;45393;-72
2022/08/23 00:09:19;;;;;;;;;3.00;2.80;;;;;22.96;49.47;98894.25;5074790;28;45460;-71
2022/08/23 00:11:48;;;;;;;;;2.00;2.00;;;;;22.92;49.55;98886.66;5073947;28;45555;-72
2022/08/23 00:14:20;;;;;;;;;4.00;2.20;;;;;22.86;49.49;98882.69;5071087;28;45459;-72
2022/08/23 00:16:46;;;;;;;;;2.60;2.60;;;;;22.80;49.61;98885.09;5073998;28;45218;-72
2022/08/23 00:19:15;;;;;;;;;2.75;2.75;;;;;22.74;48.42;98878.44;5074939;28;45405;-72
2022/08/23 00:21:41;;;;;;;;;2.00;1.00;;;;;22.72;49.44;98893.88;5074508;28;46413;-72
2022/08/23 00:24:08;;;;;;;;;2.00;1.60;;;;;22.71;49.90;98894.00;5071231;28;45330;-72
2022/08/23 00:26:55;;;;;;;;;1.20;1.20;;;;;22.68;49.92;98892.44;5074267;28;45369;-71
2022/08/23 00:29:24;;;;;;;;;2.00;1.00;;;;;22.66;51.29;98886.34;5074274;28;45593;-71
2022/08/23 00:31:49;;;;;;;;;1.80;1.80;;;;;22.66;50.71;98886.34;5073182;28;45579;-71
2022/08/23 00:34:15;;;;;;;;;1.75;1.00;;;;;22.66;50.82;98886.34;5074574;28;45348;-72
2022/08/23 00:36:43;;;;;;;;;3.60;2.20;;;;;22.64;51.11;98894.56;5074362;28;45455;-71
2022/08/23 00:39:10;;;;;;;;;3.00;2.00;;;;;22.61;50.39;98886.81;5074492;28;45429;-71
2022/08/23 00:41:36;;;;;;;;;1.60;1.60;;;;;22.58;50.38;98887.09;5073677;28;45507;-71
2022/08/23 00:47:38;;;;;;;;;2.20;2.20;;;;;22.58;50.67;98886.25;5074491;28;45467;-71
2022/08/23 00:49:56;;;;;;;;;1.40;1.40;;;;;22.55;50.89;98889.22;5068816;28;45353;-71
2022/08/23 00:52:32;;;;;;;;;2.40;2.40;;;;;22.52;50.92;98884.13;5074003;28;45645;-71
2022/08/23 00:54:58;;;;;;;;;1.00;1.00;;;;;22.50;51.39;98888.78;5074153;28;45373;-72
2022/08/23 00:57:26;;;;;;;;;1.40;1.40;;;;;22.47;50.92;98889.91;5073332;28;45501;-71
2022/08/23 00:59:52;;;;;;;;;2.40;2.40;;;;;22.46;50.96;98888.22;5074008;28;45462;-72
2022/08/23 01:02:18;;;;;;;;;2.00;2.00;;;;;22.47;51.02;98889.91;5073469;28;45465;-71
2022/08/23 01:04:51;;;;;;;;;2.00;1.00;;;;;22.50;50.75;98892.31;5073062;28;45488;-71
2022/08/23 01:07:45;;;;;;;;;1.40;1.40;;;;;22.47;50.83;98889.91;5073224;28;45472;-71
2022/08/23 01:10:31;;;;;;;;;4.80;3.00;;;;;22.42;50.78;98891.34;5071713;28;45435;-72
2022/08/23 01:13:11;;;;;;;;;4.00;3.00;;;;;22.39;51.47;98899.69;5072605;28;45385;-72
2022/08/23 01:15:42;;;;;;;;;2.60;2.60;;;;;22.35;51.73;98898.25;5067824;28;45508;-73
2022/08/23 01:18:12;;;;;;;;;4.00;4.00;;;;;22.32;51.44;98893.16;5074109;28;45494;-72
2022/08/23 01:20:45;;;;;;;;;4.80;4.00;;;;;22.27;51.34;98897.16;5067919;28;45434;-72
2022/08/23 01:23:33;;;;;;;;;3.60;3.60;;;;;22.22;51.93;98901.22;5072820;28;46392;-72
2022/08/23 01:25:59;;;;;;;;;2.40;2.40;;;;;22.15;51.79;98900.94;5073641;28;45246;-73
2022/08/23 01:28:25;;;;;;;;;2.40;2.40;;;;;22.08;51.14;98912.38;5073774;28;45495;-73
2022/08/23 01:30:51;;;;;;;;;2.75;2.75;;;;;22.03;51.63;98911.94;5073760;28;45538;-72
2022/08/23 01:33:17;;;;;;;;;5.25;3.00;;;;;22.03;51.35;98917.31;5054850;28;45767;-73
2022/08/23 01:35:48;;;;;;;;;3.40;3.40;;;;;22.02;51.27;98920.97;5073846;28;45429;-73
2022/08/23 01:38:13;;;;;;;;;4.80;3.00;;;;;22.01;51.60;98920.13;5073689;28;45441;-73
2022/08/23 01:40:40;;;;;;;;;2.75;2.75;;;;;21.98;51.27;98923.06;5073281;28;45381;-72
2022/08/23 01:43:07;;;;;;;;;3.40;3.40;;;;;21.95;52.56;98929.53;5073375;28;46578;-72
2022/08/23 01:45:33;;;;;;;;;6.00;5.00;;;;;21.94;51.83;98927.03;5074014;28;45435;-72
2022/08/23 01:47:59;;;;;;;;;3.00;3.00;;;;;21.93;52.22;98931.53;5073453;28;45571;-72
2022/08/23 01:50:26;;;;;;;;;5.00;4.20;;;;;21.93;53.13;98930.69;5077333;28;45373;-72
2022/08/23 01:52:52;;;;;;;;;3.75;3.50;;;;;21.85;52.81;98931.38;5053553;28;46848;-70
2022/08/23 01:55:18;;;;;;;;;1.75;1.00;;;;;21.82;53.26;98928.09;5076743;28;45396;-71
2022/08/23 01:57:45;;;;;;;;;3.40;3.40;;;;;21.77;53.52;98931.22;5075247;28;45500;-70
2022/08/23 02:00:11;;;;;;;;;3.00;3.00;;;;;21.74;53.22;98927.94;5076640;28;45539;-69
2022/08/23 02:02:37;;;;;;;;;2.00;2.00;;;;;21.71;53.98;98931.75;5073802;28;45578;-69
2022/08/23 02:05:05;;;;;;;;;3.00;3.00;;;;;21.69;53.46;98941.78;5076376;28;45495;-69
2022/08/23 02:07:30;;;;;;;;;3.00;3.00;;;;;21.66;53.23;98936.66;5076730;28;45444;-74
2022/08/23 02:09:55;;;;;;;;;3.00;3.00;;;;;21.64;52.69;98945.84;5076296;28;45310;-73
2022/08/23 02:12:21;;;;;;;;;5.00;4.50;;;;;21.62;52.77;98953.19;5076117;28;45535;-74
2022/08/23 02:14:47;;;;;;;;;3.75;3.50;;;;;21.60;53.00;98953.34;5076714;28;45235;-74
2022/08/23 02:17:14;;;;;;;;;3.00;3.00;;;;;21.58;52.85;98953.47;5076868;28;45390;-74
2022/08/23 02:19:42;;;;;;;;;3.25;3.25;;;;;21.55;52.95;98950.19;5076853;28;45598;-72
2022/08/23 02:22:09;;;;;;;;;3.60;3.60;;;;;21.52;53.00;98953.13;5058081;28;47123;-72
2022/08/23 02:24:39;;;;;;;;;4.00;4.00;;;;;21.44;54.05;98952.97;5076418;28;45543;-73
2022/08/23 02:27:05;;;;;;;;;4.00;4.00;;;;;21.36;54.28;98958.16;5069619;28;45416;-72
2022/08/23 02:29:34;;;;;;;;;3.25;3.25;;;;;21.30;54.41;98947.94;5076611;28;45333;-73
2022/08/23 02:32:00;;;;;;;;;2.60;2.60;;;;;21.27;54.47;98953.59;5073951;27;46389;-73
2022/08/23 02:34:27;;;;;;;;;4.00;4.00;;;;;21.23;54.11;98955.69;5072782;28;45595;-73
2022/08/23 02:36:53;;;;;;;;;3.60;3.00;;;;;21.21;55.11;98955.81;5057889;28;45520;-73
2022/08/23 02:39:19;;;;;;;;;4.00;4.00;;;;;21.18;54.95;98958.72;5058216;28;45401;-72
2022/08/23 02:41:44;;;;;;;;;2.00;2.00;;;;;21.10;56.26;98961.22;5072192;28;46433;-69
2022/08/23 02:44:11;;;;;;;;;3.00;2.50;;;;;21.04;56.32;98974.28;5073487;28;45492;-71
2022/08/23 02:46:38;;;;;;;;;2.80;2.20;;;;;20.98;56.83;98978.34;5075088;28;45415;-70
2022/08/23 02:49:04;;;;;;;;;1.80;1.80;;;;;20.93;57.40;98977.06;5075646;28;45427;-69
2022/08/23 02:51:29;;;;;;;;;2.75;2.75;;;;;20.84;57.45;98974.16;5074391;28;46026;-71
2022/08/23 02:53:55;;;;;;;;;4.00;2.00;;;;;20.76;57.62;98971.28;5075838;28;45389;-72
2022/08/23 02:56:21;;;;;;;;;3.00;2.00;;;;;20.74;57.95;98975.06;5074880;28;45387;-72
2022/08/23 02:58:48;;;;;;;;;4.25;4.00;;;;;20.70;58.14;98973.63;5072521;28;45563;-72
2022/08/23 03:01:19;;;;;;;;;3.40;3.40;;;;;20.69;58.09;98974.59;5074257;28;45385;-72
2022/08/23 03:03:45;;;;;;;;;3.80;3.00;;;;;20.66;57.78;98978.38;5075470;28;45461;-72
2022/08/23 03:06:12;;;;;;;;;2.50;2.50;;;;;20.64;57.74;98977.66;5075894;28;45418;-72
2022/08/23 03:08:38;;;;;;;;;2.60;2.20;;;;;20.64;57.91;98983.00;5057309;28;45477;-72
2022/08/23 03:11:14;;;;;;;;;5.25;4.00;;;;;20.61;57.61;98988.63;5074205;28;46424;-72
2022/08/23 03:13:41;;;;;;;;;2.00;2.00;;;;;20.58;58.46;98990.72;5075710;28;45470;-72
2022/08/23 03:16:09;;;;;;;;;2.00;2.00;;;;;20.54;58.51;98995.47;5076240;28;45398;-72
2022/08/23 03:18:35;;;;;;;;;2.20;2.20;;;;;20.51;58.66;98995.72;5075608;28;45476;-72
2022/08/23 03:21:04;;;;;;;;;5.40;3.20;;;;;20.49;58.05;98993.19;5075192;28;45599;-72
2022/08/23 03:23:31;;;;;;;;;2.00;2.00;;;;;20.49;58.71;98998.53;5075513;28;45223;-74
2022/08/23 03:25:58;;;;;;;;;4.80;3.40;;;;;20.49;58.53;98995.84;5075559;28;45397;-74
2022/08/23 03:28:24;;;;;;;;;3.20;3.20;;;;;20.49;58.56;98998.53;5072125;28;45412;-74
2022/08/23 03:30:50;;;;;;;;;6.00;3.40;;;;;20.49;58.83;99001.22;5057495;28;46344;-75
2022/08/23 03:33:15;;;;;;;;;3.00;3.00;;;;;20.44;59.26;98998.06;5075720;28;45291;-72
2022/08/23 03:35:41;;;;;;;;;3.50;3.00;;;;;20.39;60.02;99002.97;5075111;28;45297;-72
2022/08/23 03:38:07;;;;;;;;;3.00;3.00;;;;;20.37;59.49;99004.06;5075457;28;45500;-72
2022/08/23 03:40:33;;;;;;;;;2.25;2.25;;;;;20.32;58.62;99007.06;5075098;28;45344;-72
2022/08/23 03:43:00;;;;;;;;;4.00;3.80;;;;;20.31;59.00;99009.88;5072326;28;45504;-72
2022/08/23 03:45:25;;;;;;;;;4.00;3.40;;;;;20.30;58.87;99006.34;5075273;28;45476;-72
2022/08/23 03:47:51;;;;;;;;;3.25;3.25;;;;;20.32;58.98;99009.75;5074142;28;45490;-72
2022/08/23 03:50:16;;;;;;;;;4.25;4.25;;;;;20.32;58.48;99004.38;5075100;28;45630;-72
2022/08/23 03:52:41;;;;;;;;;3.50;3.00;;;;;20.33;58.17;99011.44;5056950;28;45494;-73
2022/08/23 03:55:07;;;;;;;;;4.25;4.25;;;;;20.33;58.76;99010.59;5056892;28;45389;-74
2022/08/23 03:57:33;;;;;;;;;4.25;4.25;;;;;20.34;58.65;99014.97;5051115;28;45584;-74
2022/08/23 03:59:58;;;;;;;;;5.25;3.25;;;;;20.35;58.68;99016.69;5074642;28;45468;-74
2022/08/23 04:02:24;;;;;;;;;6.00;5.00;;;;;20.34;59.33;99013.16;5066930;28;45482;-74
2022/08/23 04:04:50;;;;;;;;;5.00;5.00;;;;;20.33;58.94;99018.63;5075241;28;45430;-72
2022/08/23 04:07:19;;;;;;;;;4.25;4.00;;;;;20.30;59.51;99013.53;5075083;28;45330;-73
2022/08/23 04:09:45;;;;;;;;;3.00;3.00;;;;;20.28;59.36;99015.47;5074394;28;45504;-72
2022/08/23 04:12:11;;;;;;;;;6.40;5.00;;;;;20.23;59.67;99015.88;5074867;28;45413;-72
2022/08/23 04:14:36;;;;;;;;;4.00;4.00;;;;;20.19;60.10;99025.13;5074046;28;45424;-72
2022/08/23 04:17:02;;;;;;;;;4.00;4.00;;;;;20.17;60.49;99024.38;5075098;28;45570;-69
2022/08/23 04:19:27;;;;;;;;;4.00;4.00;;;;;20.16;60.54;99028.03;5074594;28;46231;-69
2022/08/23 04:21:53;;;;;;;;;4.00;3.50;;;;;20.14;60.40;99025.47;5070312;28;45484;-70
2022/08/23 04:24:18;;;;;;;;;2.00;2.00;;;;;20.13;61.00;99028.28;5074324;28;45308;-71
2022/08/23 04:26:44;;;;;;;;;4.00;2.50;;;;;20.12;61.61;99034.59;5074190;28;45400;-70
2022/08/23 04:29:13;;;;;;;;;4.75;4.00;;;;;20.10;62.05;99033.91;5052901;28;45549;-70
2022/08/23 04:31:38;;;;;;;;;4.40;3.00;;;;;20.06;61.76;99038.66;5072879;28;45495;-69
2022/08/23 04:34:04;;;;;;;;;3.50;3.00;;;;;20.05;62.34;99039.63;5074273;28;45507;-72
2022/08/23 04:36:34;;;;;;;;;4.25;4.25;;;;;20.02;62.10;99041.69;5074045;28;45359;-71
2022/08/23 04:38:59;;;;;;;;;3.20;3.20;;;;;19.97;61.81;99050.06;5072655;28;45410;-72
2022/08/23 04:44:08;;;;;;;;;3.20;3.20;;;;;19.95;61.46;99052.00;5063773;28;45374;-73
2022/08/23 04:46:35;;;;;;;;;4.00;4.00;;;;;19.94;61.63;99054.84;5055461;28;45514;-73
2022/08/23 04:49:01;;;;;;;;;4.20;3.40;;;;;19.94;61.55;99057.50;5074307;28;46457;-73
2022/08/23 04:51:26;;;;;;;;;6.80;4.80;;;;;19.93;61.52;99051.31;5074199;28;45369;-73
2022/08/23 04:53:52;;;;;;;;;7.50;5.00;;;;;19.94;61.18;99060.19;5074187;28;45368;-73
2022/08/23 04:56:17;;;;;;;;;7.00;6.00;;;;;19.93;61.49;99059.34;5073889;28;45535;-73
2022/08/23 04:58:43;;;;;;;;;4.75;4.75;;;;;19.95;61.71;99057.34;5074046;28;45794;-73
2022/08/23 05:01:09;;;;;;;;;5.20;4.80;;;;;19.94;61.29;99063.69;5074429;28;45381;-74
2022/08/23 05:03:36;;;;;;;;;5.75;5.75;;;;;19.96;61.38;99069.78;5073995;28;45567;-74
2022/08/23 05:06:03;;;;;;;;;6.00;6.00;;;;;19.97;61.81;99074.16;5073797;28;45440;-75
2022/08/23 05:08:30;;;;;;;;;5.00;5.00;;;;;19.98;61.53;99069.66;5074095;28;45652;-75
2022/08/23 05:11:00;;;;;;;;;4.60;4.60;;;;;19.99;61.21;99080.25;5073293;28;45496;-74
2022/08/23 05:13:25;;;;;;;;;4.00;4.00;;;;;20.00;61.54;99081.94;5073884;28;45355;-75
2022/08/23 05:15:51;;;;;;;;;5.00;4.00;;;;;19.98;62.14;99086.56;5073806;28;45613;-74
2022/08/23 05:18:17;;;;;;;;;3.50;3.50;;;;;19.94;62.02;99089.63;5073702;28;45571;-74
2022/08/23 05:20:42;;;;;;;;;5.00;5.00;;;;;19.91;61.90;99095.22;5073376;28;45547;-74
2022/08/23 05:23:07;;;;;;;;;5.00;4.50;;;;;19.89;61.60;99092.66;5073663;28;45426;-58
2022/08/23 05:25:48;;;;;;;;;5.00;5.00;;;;;19.87;61.86;99097.28;5076732;28;45526;-58
2022/08/23 05:28:17;;;;;;;;;6.50;6.50;;;;;19.87;62.35;99102.63;5071109;28;45436;-61
2022/08/23 05:30:43;;;;;;;;;4.20;4.00;;;;;19.84;62.72;99106.38;5076580;28;45599;-61
2022/08/23 05:33:08;;;;;;;;;5.50;5.50;;;;;19.85;62.78;99108.09;5075223;28;45496;-62
2022/08/23 05:35:33;;;;;;;;;4.50;4.50;;;;;19.84;63.54;99103.72;5075942;28;45663;-61
2022/08/23 05:37:59;;;;;;;;;6.00;5.25;;;;;19.85;63.52;99108.09;5075045;28;46684;-61
2022/08/23 05:40:26;;;;;;;;;4.00;4.00;;;;;19.86;62.62;99115.16;5076132;28;45520;-61
2022/08/23 05:42:52;;;;;;;;;6.00;5.00;;;;;19.89;62.49;99111.38;5076136;28;45466;-61
2022/08/23 05:45:17;;;;;;;;;6.75;5.75;;;;;19.92;62.62;99108.47;5076239;28;45371;-61
2022/08/23 05:47:43;;;;;;;;;6.25;5.25;;;;;19.94;62.08;99109.19;5069429;28;46571;-61
2022/08/23 05:50:09;;;;;;;;;6.00;6.00;;;;;19.97;62.61;99105.41;5076186;28;45499;-60
2022/08/23 05:52:35;;;;;;;;;5.25;5.00;;;;;19.99;62.42;99108.81;5076458;28;45411;-60
2022/08/23 05:55:00;;;;;;;;;8.50;7.00;;;;;20.02;62.05;99106.75;5076197;28;45365;-60
2022/08/23 05:57:26;;;;;;;;;4.75;4.75;;;;;20.05;62.46;99111.88;5055347;28;46068;-60
2022/08/23 05:59:51;;;;;;;;;8.00;8.00;;;;;20.11;62.03;99121.22;5076042;28;45499;-60
2022/08/23 06:02:16;;;;;;;;;8.50;7.50;;;;;20.13;62.43;99116.59;5075681;28;45404;-60
2022/08/23 06:04:42;;;;;;;;;8.00;8.00;;;;;20.14;62.04;99111.13;5076125;28;45518;-60
2022/08/23 06:07:09;;;;;;;;;9.25;8.25;;;;;20.17;62.47;99118.06;5075321;28;46448;-60
2022/08/23 06:09:35;;;;;;;;;10.80;7.40;;;;;20.20;61.76;99117.84;5075493;28;45389;-60
2022/08/23 06:12:00;;;;;;;;;7.50;5.50;;;;;20.21;62.32;99125.75;5075633;28;45332;-60
2022/08/23 06:14:27;;;;;;;;;17.50;16.00;;;;;20.24;61.86;99127.34;5076358;28;45559;-60
2022/08/23 06:16:52;;;;;;;;;7.25;6.25;;;;;20.28;61.82;99117.22;5074677;28;46208;-60
2022/08/23 06:19:18;;;;;;;;;7.00;6.00;;;;;20.30;61.77;99113.44;5076280;28;45421;-60
2022/08/23 06:21:44;;;;;;;;;7.75;6.50;;;;;20.32;62.04;99119.53;5075898;28;45379;-60
2022/08/23 06:24:11;;;;;;;;;7.50;7.50;;;;;20.35;61.72;99121.09;5075682;28;45565;-59
2022/08/23 06:26:40;;;;;;;;;8.00;6.20;;;;;20.40;61.74;99118.97;5053821;28;48412;-58
2022/08/23 06:29:09;;;;;;;;;7.00;7.00;;;;;20.41;61.42;99124.19;5072861;28;45529;-57
2022/08/23 06:31:45;;;;;;;;;9.80;6.40;;;;;20.44;61.49;99121.25;5074981;28;45457;-58
2022/08/23 06:34:21;;;;;;;;;8.00;6.50;;;;;20.49;61.90;99118.19;5074622;28;45567;-59
2022/08/23 06:36:51;;;;;;;;;8.75;7.00;;;;;20.52;61.64;99126.84;5055643;28;46561;-55
2022/08/23 06:39:18;;;;;;;;;6.40;5.00;;;;;20.54;61.43;99124.91;5074997;28;45368;-58
2022/08/23 06:41:47;;;;;;;;;6.20;6.20;;;;;20.59;61.48;99126.38;5075154;28;45579;-55
2022/08/23 06:44:13;;;;;;;;;6.50;6.50;;;;;20.64;61.68;99116.09;5075760;28;45479;-57
2022/08/23 06:46:39;;;;;;;;;6.50;6.50;;;;;20.68;61.73;99115.72;5074412;28;46408;-58
2022/08/23 06:49:06;;;;;;;;;7.50;6.75;;;;;20.73;61.00;99115.38;5074066;28;45470;-58
2022/08/23 06:51:33;;;;;;;;;7.75;7.75;;;;;20.75;60.89;99116.09;5074836;28;45410;-69
2022/08/23 06:54:02;;;;;;;;;6.00;6.00;;;;;20.78;61.08;99116.66;5074695;28;45597;-70
2022/08/23 06:56:28;;;;;;;;;6.00;6.00;;;;;20.81;61.01;99123.63;5074773;28;45412;-69
2022/08/23 06:58:54;;;;;;;;;6.75;6.00;;;;;20.83;60.74;99125.19;5074969;28;45772;-69
2022/08/23 07:01:45;;;;;;;;;11.75;7.00;;;;;20.86;60.47;99124.09;5075374;28;45320;-70
2022/08/23 07:04:13;;;;;;;;;9.00;7.50;;;;;20.87;60.35;99115.94;5070756;28;45545;-69
2022/08/23 07:06:39;;;;;;;;;6.00;6.00;;;;;20.87;60.53;99115.94;5075087;28;45754;-70
2022/08/23 07:09:05;;;;;;;;;8.00;7.00;;;;;20.90;60.44;99120.19;5074772;28;45485;-70
2022/08/23 07:11:31;;;;;;;;;7.60;6.80;;;;;20.92;60.12;99115.56;5075823;28;45428;-69
2022/08/23 07:14:03;;;;;;;;;7.75;7.50;;;;;20.95;60.14;99117.97;5074837;28;45393;-69
2022/08/23 07:16:36;;;;;;;;;13.80;11.00;;;;;20.97;59.73;99116.00;5060490;28;46612;-69
2022/08/23 07:19:02;;;;;;;;;9.60;8.80;;;;;20.98;60.26;99116.88;5075091;28;45532;-69
2022/08/23 07:21:28;;;;;;;;;9.40;8.60;;;;;21.00;60.18;99117.59;5073823;28;45800;-69
2022/08/23 07:23:54;;;;;;;;;9.25;9.00;;;;;21.05;60.39;99116.25;5075129;28;45533;-68
2022/08/23 07:26:20;;;;;;;;;8.00;8.00;;;;;21.12;59.93;99121.94;5074493;28;45996;-69
2022/08/23 07:28:45;;;;;;;;;8.00;7.40;;;;;21.19;59.79;99121.34;5074349;28;45391;-69
2022/08/23 07:31:18;;;;;;;;;5.75;5.75;;;;;21.27;59.10;99122.53;5075105;28;45512;-68
2022/08/23 07:33:44;;;;;;;;;7.00;6.00;;;;;21.33;58.84;99120.16;5075340;28;45472;-68
2022/08/23 07:36:15;;;;;;;;;6.60;6.60;;;;;21.39;58.40;99119.66;5066881;28;45414;-71
2022/08/23 07:38:41;;;;;;;;;7.40;7.40;;;;;21.45;58.64;99123.66;5060671;28;45350;-64
2022/08/23 07:41:06;;;;;;;;;7.75;7.75;;;;;21.48;58.53;99124.22;5058283;28;45480;-69
2022/08/23 07:43:33;;;;;;;;;8.00;8.00;;;;;21.56;58.19;99120.91;5056096;28;45489;-68
2022/08/23 07:45:59;;;;;;;;;5.75;5.75;;;;;21.61;57.28;99120.53;5063336;28;46577;-68
2022/08/23 07:48:24;;;;;;;;;6.25;6.25;;;;;21.67;57.45;99120.84;5054227;28;45817;-70
2022/08/23 07:50:56;;;;;;;;;7.75;7.00;;;;;21.74;56.54;99123.84;5051580;28;45672;-68
2022/08/23 07:53:22;;;;;;;;;12.00;9.00;;;;;21.75;56.74;99126.41;5056242;28;45570;-65
2022/08/23 07:55:48;;;;;;;;;6.00;6.00;;;;;21.77;56.58;99118.22;5054326;28;45616;-77
2022/08/23 07:58:13;;;;;;;;;8.00;8.00;;;;;21.82;57.01;99124.88;5053878;28;45553;-69
2022/08/23 08:00:38;;;;;;;;;7.00;7.00;;;;;21.85;56.54;99124.63;5060688;28;45389;-68
2022/08/23 08:03:04;;;;;;;;;7.25;7.25;;;;;21.90;56.29;99127.78;5065054;28;45514;-69
2022/08/23 08:05:33;;;;;;;;;9.25;8.50;;;;;21.94;55.47;99128.34;5055819;28;46654;-69
2022/08/23 08:08:00;;;;;;;;;11.20;9.80;;;;;21.97;55.64;99125.38;5055951;28;45351;-68
2022/08/23 08:10:26;;;;;;;;;8.50;8.50;;;;;21.99;55.02;99123.41;5056365;28;45536;-69
2022/08/23 08:12:51;;;;;;;;;8.25;8.00;;;;;22.01;53.82;99124.16;5065321;28;45385;-69
2022/08/23 08:15:18;;;;;;;;;7.25;7.25;;;;;22.02;54.26;99122.34;5058772;28;46632;-68
2022/08/23 08:17:47;;;;;;;;;8.80;7.60;;;;;22.03;54.31;99116.00;5063679;28;45431;-69
2022/08/23 08:20:14;;;;;;;;;11.00;10.00;;;;;22.06;53.49;99113.91;5056668;28;45358;-69
2022/08/23 08:22:40;;;;;;;;;8.00;8.00;;;;;22.10;53.93;99119.84;5066278;28;45551;-68
2022/08/23 08:25:07;;;;;;;;;7.50;7.00;;;;;22.12;54.09;99117.88;5071773;28;46360;-69
2022/08/23 08:27:32;;;;;;;;;9.80;8.60;;;;;22.14;53.39;99119.44;5055695;28;45460;-69
2022/08/23 08:29:57;;;;;;;;;8.00;8.00;;;;;22.15;53.63;99118.44;5056061;28;45435;-68
2022/08/23 08:32:23;;;;;;;;;9.00;8.00;;;;;22.20;53.76;99118.03;5042658;28;45505;-68
2022/08/23 08:34:48;;;;;;;;;10.00;8.00;;;;;22.24;53.19;99114.97;5060540;28;45409;-69
2022/08/23 08:37:13;;;;;;;;;9.50;9.50;;;;;22.30;53.47;99113.56;5073228;28;45475;-69
2022/08/23 08:39:44;;;;;;;;;9.25;9.00;;;;;22.35;53.61;99114.00;5074299;28;45480;-68
2022/08/23 08:42:33;;;;;;;;;8.00;7.00;;;;;22.42;52.89;99117.00;5073136;28;45218;-69
2022/08/23 08:45:04;;;;;;;;;7.60;7.00;;;;;22.48;53.05;99117.28;5074314;28;46659;-68
2022/08/23 08:47:44;;;;;;;;;7.80;7.60;;;;;22.53;53.62;99119.56;5074052;28;45371;-68
2022/08/23 08:50:54;;;;;;;;;7.00;7.00;;;;;22.62;53.38;99108.03;5074234;28;45429;-68
2022/08/23 08:53:22;;;;;;;;;10.00;8.00;;;;;22.70;53.56;99116.22;5010708;28;46262;-69
2022/08/23 08:55:52;;;;;;;;;9.20;8.40;;;;;22.76;53.25;99114.84;5061855;28;45682;-69
2022/08/23 08:58:38;;;;;;;;;9.00;9.00;;;;;22.83;53.32;99119.53;5075355;28;45539;-69
2022/08/23 09:01:03;;;;;;;;;6.40;6.40;;;;;22.85;52.96;99119.41;5078008;28;45423;-69
2022/08/23 09:03:33;;;;;;;;;8.25;8.00;;;;;22.87;53.12;99112.91;5068562;28;45488;-68
2022/08/23 09:06:15;;;;;;;;;7.60;7.60;;;;;22.90;52.91;99107.25;5077629;28;45392;-68
2022/08/23 09:09:00;;;;;;;;;5.80;5.20;;;;;22.90;53.33;99104.56;5077785;28;45362;-69
2022/08/23 09:11:44;;;;;;;;;8.40;7.80;;;;;22.94;53.19;99103.28;5077520;28;45395;-68
2022/08/23 09:14:31;;;;;;;;;8.50;8.00;;;;;23.04;53.25;99099.75;5068817;28;45389;-68
2022/08/23 09:17:03;;;;;;;;;8.60;8.60;;;;;23.09;53.10;99092.13;5077173;28;46366;-68
2022/08/23 09:19:33;;;;;;;;;8.40;7.20;;;;;23.15;52.57;99088.84;5077373;28;45470;-69
2022/08/23 09:22:08;;;;;;;;;8.00;7.60;;;;;23.24;52.35;99098.78;5077217;28;45581;-69
2022/08/23 09:24:33;;;;;;;;;7.25;7.25;;;;;23.32;51.89;99080.06;5068648;28;45536;-68
2022/08/23 09:27:00;;;;;;;;;11.00;8.50;;;;;23.40;52.25;99090.97;5076293;28;46226;-69
2022/08/23 09:29:32;;;;;;;;;8.00;7.00;;;;;23.48;51.78;99088.41;5077874;28;45443;-69
2022/08/23 09:32:03;;;;;;;;;6.00;6.00;;;;;23.55;52.00;99081.50;5074830;28;45434;-68
2022/08/23 09:34:28;;;;;;;;;10.00;8.00;;;;;23.64;51.50;99074.38;5077751;28;45354;-68
2022/08/23 09:37:04;;;;;;;;;8.00;6.25;;;;;23.72;51.32;99073.66;5075352;28;46318;-68
2022/08/23 09:39:33;;;;;;;;;9.40;7.20;;;;;23.79;51.17;99078.34;5073473;28;45492;-68
2022/08/23 09:41:59;;;;;;;;;7.00;7.00;;;;;23.86;51.06;99075.88;5058313;28;45460;-68
2022/08/23 09:44:38;;;;;;;;;8.75;7.75;;;;;23.93;50.87;99066.22;5076830;28;45542;-69
2022/08/23 09:47:10;;;;;;;;;8.80;7.80;;;;;24.00;50.55;99067.31;5076506;28;45468;-68
2022/08/23 09:49:36;;;;;;;;;9.60;8.80;;;;;24.07;50.55;99063.06;5076465;28;45385;-69
2022/08/23 09:52:20;;;;;;;;;8.40;8.20;;;;;24.15;50.02;99062.28;5057840;28;45458;-71
2022/08/23 09:55:01;;;;;;;;;7.60;5.80;;;;;24.24;49.29;99064.16;5075186;28;45430;-68
2022/08/23 09:57:30;;;;;;;;;7.40;6.00;;;;;24.28;48.83;99054.78;5076266;28;45770;-68
2022/08/23 10:00:17;;;;;;;;;6.80;6.80;;;;;24.33;48.83;99053.31;5076696;28;45395;-68
2022/08/23 10:02:43;;;;;;;;;10.20;9.20;;;;;24.37;48.32;99047.63;5074885;28;45523;-69
2022/08/23 10:05:14;;;;;;;;;9.75;8.25;;;;;24.43;48.66;99041.63;5076006;28;45380;-68
2022/08/23 10:07:54;;;;;;;;;4.60;4.20;;;;;24.50;48.59;99046.25;5052969;28;46308;-68
2022/08/23 10:10:25;;;;;;;;;7.00;6.40;;;;;24.59;48.23;99036.44;5075495;28;45361;-68
2022/08/23 10:12:53;;;;;;;;;7.20;5.80;;;;;24.65;47.69;99044.72;5075810;28;45448;-68
2022/08/23 10:15:24;;;;;;;;;7.50;7.50;;;;;24.70;47.40;99037.03;5076441;28;45503;-64
2022/08/23 10:18:25;;;;;;;;;7.00;7.00;;;;;24.77;47.57;99037.28;5048518;28;45598;-68
2022/08/23 10:21:16;;;;;;;;;7.80;6.60;;;;;24.85;46.80;99033.81;5071562;28;45344;-68
2022/08/23 10:24:03;;;;;;;;;5.80;5.80;;;;;24.89;47.24;99035.19;5073171;28;45507;-68
2022/08/23 10:26:32;;;;;;;;;5.40;5.00;;;;;24.91;47.29;99022.41;5072708;28;45359;-68
2022/08/23 10:29:37;;;;;;;;;6.20;5.60;;;;;24.97;47.20;99025.34;5075793;28;46452;-68
2022/08/23 10:32:21;;;;;;;;;9.40;7.40;;;;;25.06;47.34;99020.91;5069099;28;45437;-68
2022/08/23 10:35:22;;;;;;;;;10.80;8.40;;;;;25.17;47.08;99014.41;5074896;28;45517;-70
2022/08/23 10:38:11;;;;;;;;;11.25;10.00;;;;;25.28;46.80;99012.31;5065961;28;45640;-69
2022/08/23 10:40:45;;;;;;;;;8.60;8.60;;;;;25.42;47.03;99010.03;5075330;28;46639;-73
2022/08/23 10:43:46;;;;;;;;;6.80;6.80;;;;;25.51;46.17;99006.38;5076109;28;45389;-68
2022/08/23 10:46:11;;;;;;;;;6.20;6.20;;;;;25.61;46.47;98999.03;5032836;28;45363;-68
2022/08/23 10:48:51;;;;;;;;;10.00;10.00;;;;;25.71;46.63;99007.88;5075052;28;45382;-69
2022/08/23 10:51:24;;;;;;;;;7.80;7.40;;;;;25.78;46.18;99000.84;5076100;28;45544;-68
2022/08/23 10:54:04;;;;;;;;;7.40;7.40;;;;;25.82;45.84;99004.91;5073768;28;45560;-69
2022/08/23 10:56:30;;;;;;;;;7.80;7.00;;;;;25.84;46.08;99004.75;5075163;28;45526;-68
2022/08/23 10:59:00;;;;;;;;;9.50;8.25;;;;;25.88;45.76;98996.16;5075396;28;45464;-69
2022/08/23 11:01:51;;;;;;;;;10.80;7.40;;;;;25.95;45.43;98990.97;5071609;28;46563;-69
2022/08/23 11:04:43;;;;;;;;;7.40;7.00;;;;;26.01;45.67;98985.75;5072369;27;45401;-68
2022/08/23 11:07:30;;;;;;;;;6.80;6.60;;;;;26.10;45.11;98991.19;5071750;28;45582;-68
2022/08/23 11:10:06;;;;;;;;;5.75;5.75;;;;;26.16;44.70;98982.41;5073036;28;45579;-69
2022/08/23 11:12:36;;;;;;;;;8.00;7.40;;;;;26.21;44.51;98980.91;5072508;28;45545;-68
2022/08/23 11:15:07;;;;;;;;;4.20;4.20;;;;;26.24;44.94;98986.00;5075485;28;45557;-67
2022/08/23 11:17:50;;;;;;;;;6.40;6.00;;;;;26.27;44.18;98980.28;5072416;27;45412;-67
2022/08/23 11:20:50;;;;;;;;;6.40;6.40;;;;;26.32;43.75;98979.78;5075890;28;45585;-67
2022/08/23 11:23:33;;;;;;;;;8.60;6.40;;;;;26.39;44.17;98976.28;5073070;28;45595;-67
2022/08/23 11:26:00;;;;;;;;;6.40;6.40;;;;;26.48;44.19;98968.19;5053162;28;45361;-67
2022/08/23 11:28:25;;;;;;;;;10.00;7.60;;;;;26.59;44.02;98970.56;5056044;28;45553;-67
2022/08/23 11:31:25;;;;;;;;;7.00;7.00;;;;;26.66;43.66;98964.31;5074315;28;45361;-67
2022/08/23 11:34:00;;;;;;;;;9.00;8.00;;;;;26.73;43.63;98980.72;5072797;28;45442;-67
2022/08/23 11:36:28;;;;;;;;;5.00;5.00;;;;;26.77;43.34;98958.59;5074215;28;45595;-67
2022/08/23 11:38:56;;;;;;;;;8.20;6.60;;;;;26.83;43.93;98969.72;5073800;28;45441;-67
2022/08/23 11:41:26;;;;;;;;;7.00;7.00;;;;;26.88;43.20;98970.09;5074702;28;45293;-67
2022/08/23 11:43:54;;;;;;;;;6.40;6.40;;;;;26.91;43.23;98965.19;5061864;28;45527;-67
2022/08/23 11:46:30;;;;;;;;;7.00;7.00;;;;;26.96;42.81;98956.59;5074976;28;45384;-67
2022/08/23 11:49:14;;;;;;;;;8.20;8.00;;;;;27.04;42.77;98954.72;5075036;28;45484;-67
2022/08/23 11:52:05;;;;;;;;;9.25;7.00;;;;;27.18;43.18;98953.19;5068356;28;45361;-67